Terminal Aerodrome Forecast
Issued by NWS

Current Version | Previous Version | Graphics & Text | Print | Product List | Glossary On
Versions: 1 2 3 4 5 6 7 8 9 10 11 12 13 14 15 16 17 18 19 20 21 22 23 24 25 26 27 28 29 30 31
000
FTUS41 KILN 262125 AAB
TAFLUK
TAF AMD
KLUK 262125Z 2621/2718 30012G20KT P6SM TS SCT025 BKN040CB
      TEMPO 2622/2623 3SM TSRA BR OVC025CB
     FM262300 33008KT P6SM VCSH BKN040
     FM270100 00000KT P6SM VCSH BKN040
     FM270900 00000KT 4SM BR SCT040
      TEMPO 2710/2712 2SM BR
     FM271200 00000KT P6SM SCT040
     FM271500 08003KT P6SM FEW050=

USA.gov is the U.S. government's official web portal to all federal, state and local government web resources and services.